Time;durP1;ratioP1;P1;durP2;ratioP2;P2;SDS_P1;SDS_P2;PMS_P1;PMS_P2;Temp;Humidity;BMP_temperature;BMP_pressure;BME280_temperature;BME280_humidity;BME280_pressure;Samples;Min_cycle;Max_cycle;Signal;HPM_P1;HPM_P2
2023/05/03 00:00:07;;;;;;;;;26.67;23.33;;;;;15.53;nan;101745.22;4887071;29;48487;-83
2023/05/03 00:02:38;;;;;;;;;19.33;19.33;;;;;15.50;nan;101740.72;4886960;29;45425;-82
2023/05/03 00:05:11;;;;;;;;;23.00;21.33;;;;;15.57;nan;101737.25;4889506;29;45423;-82
2023/05/03 00:07:37;;;;;;;;;26.00;22.33;;;;;15.44;nan;101732.63;4892419;29;45434;-82
2023/05/03 00:10:03;;;;;;;;;20.67;17.67;;;;;15.42;nan;101733.50;4874382;29;47124;-82
2023/05/03 00:12:29;;;;;;;;;25.67;23.67;;;;;15.42;nan;101730.81;4891457;29;45427;-81
2023/05/03 00:14:55;;;;;;;;;22.00;20.67;;;;;15.38;nan;101725.41;4891775;29;45344;-82
2023/05/03 00:20:42;;;;;;;;;20.00;18.67;;;;;15.27;nan;101732.47;4892399;29;45495;-82
2023/05/03 00:23:07;;;;;;;;;21.67;21.33;;;;;15.18;nan;101757.38;4872367;29;45446;-82
2023/05/03 00:25:33;;;;;;;;;18.00;17.33;;;;;15.17;nan;101741.28;4872571;29;45994;-82
2023/05/03 00:27:59;;;;;;;;;18.00;16.33;;;;;15.10;nan;101756.38;4888524;29;45386;-82
2023/05/03 00:30:24;;;;;;;;;19.67;19.67;;;;;15.06;nan;101737.56;4886849;29;46987;-82
2023/05/03 00:32:50;;;;;;;;;25.67;24.00;;;;;15.03;nan;101750.91;4887591;29;45466;-82
2023/05/03 00:35:16;;;;;;;;;20.33;20.33;;;;;14.95;nan;101738.34;4888154;29;45779;-82
2023/05/03 00:37:41;;;;;;;;;24.33;24.33;;;;;14.90;nan;101739.16;4890478;29;45439;-82
2023/05/03 00:40:07;;;;;;;;;18.67;18.33;;;;;14.90;nan;101753.44;4892849;29;45422;-83
2023/05/03 00:42:35;;;;;;;;;19.67;17.67;;;;;14.92;nan;101730.25;4893983;29;45428;-83
2023/05/03 00:45:03;;;;;;;;;23.33;18.33;;;;;14.79;nan;101733.69;4875540;29;45433;-83
2023/05/03 00:47:29;;;;;;;;;19.67;19.00;;;;;14.80;nan;101735.47;4875955;29;45426;-83
2023/05/03 00:49:55;;;;;;;;;17.33;15.67;;;;;14.78;nan;101727.44;4891666;29;45410;-84
2023/05/03 00:52:24;;;;;;;;;20.33;20.33;;;;;14.70;nan;101722.84;4892505;29;45671;-83
2023/05/03 00:54:49;;;;;;;;;25.00;19.67;;;;;14.64;nan;101728.13;4888546;29;45751;-83
2023/05/03 00:57:16;;;;;;;;;19.33;16.00;;;;;14.73;nan;101717.56;4872408;29;45500;-84
2023/05/03 00:59:42;;;;;;;;;17.33;17.33;;;;;14.60;nan;101717.41;4889420;29;45452;-83
2023/05/03 01:02:07;;;;;;;;;19.67;17.33;;;;;14.59;nan;101720.94;4886697;29;45466;-84
2023/05/03 01:04:33;;;;;;;;;16.00;13.67;;;;;14.57;nan;101714.66;4890529;29;45468;-84
2023/05/03 01:07:22;;;;;;;;;17.00;15.00;;;;;14.70;nan;101714.81;4888374;29;45475;-83
2023/05/03 01:09:50;;;;;;;;;17.33;17.33;;;;;14.71;nan;101722.00;4871667;29;45375;-84
2023/05/03 01:12:31;;;;;;;;;17.67;15.67;;;;;14.69;nan;101721.97;4871249;29;45502;-84
2023/05/03 01:15:15;;;;;;;;;19.67;17.33;;;;;14.48;nan;101729.66;4871890;29;45365;-84
2023/05/03 01:17:49;;;;;;;;;17.00;16.67;;;;;14.62;nan;101719.19;4871914;29;45429;-84
2023/05/03 01:20:20;;;;;;;;;21.33;17.00;;;;;14.52;nan;101727.06;4871671;29;45477;-84
2023/05/03 01:23:30;;;;;;;;;15.67;15.67;;;;;14.57;nan;101728.03;4870599;29;45749;-84
2023/05/03 01:25:55;;;;;;;;;20.67;17.33;;;;;14.32;nan;101737.50;4870777;29;45584;-83
2023/05/03 01:28:21;;;;;;;;;17.00;16.67;;;;;14.24;nan;101725.78;4871818;29;45342;-83
2023/05/03 01:30:51;;;;;;;;;19.33;15.00;;;;;14.34;nan;101735.75;4869755;29;47030;-83
2023/05/03 01:33:39;;;;;;;;;20.00;18.33;;;;;14.37;nan;101732.19;4869533;29;45666;-83
2023/05/03 01:36:20;;;;;;;;;22.33;20.00;;;;;14.35;nan;101744.66;4869048;29;45530;-83
2023/05/03 01:38:47;;;;;;;;;22.67;22.67;;;;;14.22;nan;101732.88;4868369;29;45351;-83
2023/05/03 01:41:17;;;;;;;;;18.67;18.33;;;;;14.33;nan;101735.72;4871483;29;46806;-82
2023/05/03 01:43:43;;;;;;;;;20.67;19.00;;;;;14.19;nan;101739.06;4871233;29;45384;-83
2023/05/03 01:46:09;;;;;;;;;21.00;21.00;;;;;14.13;nan;101738.97;4872126;29;45517;-83
2023/05/03 01:48:34;;;;;;;;;18.67;17.33;;;;;14.11;nan;101738.03;4872635;29;45531;-83
2023/05/03 01:51:00;;;;;;;;;23.00;20.33;;;;;14.15;nan;101745.25;4871962;29;47406;-84
2023/05/03 01:53:26;;;;;;;;;18.67;18.67;;;;;14.12;nan;101738.97;4871087;29;45387;-84
2023/05/03 01:55:51;;;;;;;;;17.67;16.67;;;;;14.16;nan;101740.81;4872062;29;45431;-83
2023/05/03 01:58:16;;;;;;;;;17.67;17.33;;;;;14.25;nan;101742.72;4871791;29;45691;-83
2023/05/03 02:00:44;;;;;;;;;20.33;18.67;;;;;14.40;nan;101741.19;4869517;29;48359;-83
2023/05/03 02:03:09;;;;;;;;;16.00;16.00;;;;;14.10;nan;101741.63;4855510;29;45456;-82
2023/05/03 02:05:35;;;;;;;;;17.00;17.00;;;;;14.18;nan;101752.44;4873438;29;45501;-82
2023/05/03 02:08:01;;;;;;;;;20.33;17.67;;;;;14.10;nan;101736.25;4857080;29;45486;-82
2023/05/03 02:10:26;;;;;;;;;18.67;15.33;;;;;14.06;nan;101733.50;4874645;29;45397;-83
2023/05/03 02:12:52;;;;;;;;;21.33;19.67;;;;;14.06;nan;101744.19;4872992;29;45686;-83
2023/05/03 02:15:18;;;;;;;;;15.00;15.00;;;;;14.01;nan;101742.34;4874811;29;46098;-82
2023/05/03 02:17:46;;;;;;;;;15.67;15.67;;;;;14.01;nan;101739.66;4874765;29;45476;-83
2023/05/03 02:20:11;;;;;;;;;20.33;18.67;;;;;14.04;nan;101746.88;4875941;29;46991;-83
2023/05/03 02:22:37;;;;;;;;;13.00;13.00;;;;;14.00;nan;101745.91;4871053;29;44993;-83
2023/05/03 02:25:03;;;;;;;;;17.67;17.33;;;;;14.01;nan;101752.16;4869713;29;45463;-83
2023/05/03 02:27:29;;;;;;;;;19.00;18.00;;;;;13.91;nan;101747.53;4869953;29;45242;-83
2023/05/03 02:29:55;;;;;;;;;19.00;19.00;;;;;13.94;nan;101742.25;4868984;29;48064;-82
2023/05/03 02:32:21;;;;;;;;;19.00;17.67;;;;;14.05;nan;101745.97;4872259;29;45437;-83
2023/05/03 02:34:48;;;;;;;;;17.33;14.33;;;;;13.94;nan;101736.91;4853340;29;45467;-83
2023/05/03 02:37:14;;;;;;;;;24.67;22.67;;;;;13.88;nan;101739.47;4854585;29;45455;-83
2023/05/03 02:39:40;;;;;;;;;20.00;18.00;;;;;13.79;nan;101740.19;4855534;29;47120;-83
2023/05/03 02:42:06;;;;;;;;;21.67;18.67;;;;;13.77;nan;101737.50;4871768;29;46232;-83
2023/05/03 02:44:32;;;;;;;;;14.33;14.00;;;;;13.70;nan;101743.63;4879194;29;45515;-83
2023/05/03 02:46:57;;;;;;;;;21.00;19.00;;;;;13.70;nan;101743.63;4873585;29;45386;-82
2023/05/03 02:49:22;;;;;;;;;22.67;20.33;;;;;13.66;nan;101749.78;4894364;29;45457;-83
2023/05/03 02:51:48;;;;;;;;;19.33;17.33;;;;;13.63;nan;101739.03;4891489;29;45507;-82
2023/05/03 02:54:13;;;;;;;;;19.67;19.33;;;;;13.62;nan;101742.59;4876040;29;45416;-83
2023/05/03 02:56:45;;;;;;;;;20.00;18.00;;;;;13.80;nan;101745.59;4889755;29;45766;-83
2023/05/03 02:59:11;;;;;;;;;22.67;21.00;;;;;13.58;nan;101735.41;4887723;29;46264;-83
2023/05/03 03:01:37;;;;;;;;;23.00;20.00;;;;;13.51;nan;101729.06;4883280;29;45808;-83
2023/05/03 03:04:02;;;;;;;;;18.67;17.33;;;;;13.47;nan;101731.63;4888413;29;45918;-83
2023/05/03 03:06:27;;;;;;;;;13.33;13.00;;;;;13.47;nan;101726.28;4888706;29;45499;-83
2023/05/03 03:08:53;;;;;;;;;19.00;17.67;;;;;13.45;nan;101717.34;4890945;29;47170;-83
2023/05/03 03:11:18;;;;;;;;;21.33;16.67;;;;;13.46;nan;101732.50;4891536;29;45357;-83
2023/05/03 03:13:44;;;;;;;;;16.00;16.00;;;;;13.40;nan;101720.81;4891806;29;45703;-82
2023/05/03 03:16:09;;;;;;;;;16.33;15.33;;;;;13.42;nan;101719.97;4892802;29;45426;-83
2023/05/03 03:18:35;;;;;;;;;19.00;19.00;;;;;13.39;nan;101719.03;4891196;29;47082;-83
2023/05/03 03:21:01;;;;;;;;;28.33;24.00;;;;;13.47;nan;101713.84;4876156;29;45592;-83
2023/05/03 03:23:26;;;;;;;;;18.33;18.00;;;;;13.43;nan;101708.38;4887180;29;45506;-83
2023/05/03 03:25:52;;;;;;;;;18.33;17.00;;;;;13.36;nan;101697.59;4887406;29;45434;-83
2023/05/03 03:28:17;;;;;;;;;21.00;17.33;;;;;13.40;nan;101706.56;4871923;29;47794;-83
2023/05/03 03:30:43;;;;;;;;;16.33;15.67;;;;;13.39;nan;101705.69;4881274;29;45594;-83
2023/05/03 03:33:10;;;;;;;;;17.00;14.33;;;;;13.36;nan;101691.34;4855253;29;45588;-83
2023/05/03 03:35:36;;;;;;;;;19.00;18.00;;;;;13.43;nan;101687.00;4869742;29;45463;-83
2023/05/03 03:38:02;;;;;;;;;17.67;17.33;;;;;13.42;nan;101690.56;4870386;29;45711;-83
2023/05/03 03:40:27;;;;;;;;;22.33;14.00;;;;;13.28;nan;101687.63;4871415;29;45481;-83
2023/05/03 03:42:53;;;;;;;;;16.67;15.67;;;;;13.23;nan;101690.22;4869445;29;45528;-83
2023/05/03 03:45:18;;;;;;;;;17.33;17.33;;;;;13.21;nan;101690.19;4868764;29;45756;-83
2023/05/03 03:47:43;;;;;;;;;19.67;18.67;;;;;13.18;nan;101689.22;4868358;29;47353;-83
2023/05/03 03:50:09;;;;;;;;;20.33;18.33;;;;;13.11;nan;101689.94;4855280;29;45779;-83
2023/05/03 03:52:34;;;;;;;;;24.67;17.67;;;;;13.08;nan;101689.91;4868073;29;45836;-83
2023/05/03 03:55:00;;;;;;;;;15.67;15.67;;;;;13.04;nan;101696.06;4869780;29;45456;-83
2023/05/03 03:57:28;;;;;;;;;19.00;18.00;;;;;13.08;nan;101690.81;4853752;29;47044;-82
2023/05/03 03:59:54;;;;;;;;;22.33;17.67;;;;;13.06;nan;101683.66;4870781;29;45776;-83
2023/05/03 04:02:20;;;;;;;;;18.33;17.67;;;;;13.08;nan;101682.78;4870410;29;45473;-83
2023/05/03 04:04:46;;;;;;;;;19.33;19.33;;;;;13.10;nan;101677.50;4872512;29;45398;-83
2023/05/03 04:07:11;;;;;;;;;22.33;21.00;;;;;13.16;nan;101683.84;4868679;29;46963;-82
2023/05/03 04:09:36;;;;;;;;;23.33;22.67;;;;;13.14;nan;101687.34;4874800;29;45720;-83
2023/05/03 04:12:02;;;;;;;;;22.00;16.67;;;;;13.15;nan;101686.50;4873817;29;45356;-83
2023/05/03 04:14:27;;;;;;;;;19.67;19.67;;;;;13.16;nan;101688.28;4873015;29;45436;-82
2023/05/03 04:16:53;;;;;;;;;13.67;13.67;;;;;13.11;nan;101680.19;4871375;29;46900;-82
2023/05/03 04:19:59;;;;;;;;;24.67;19.67;;;;;13.31;nan;101688.63;4869479;29;45446;-83
2023/05/03 04:22:25;;;;;;;;;21.67;18.00;;;;;13.02;nan;101688.03;4869099;29;44918;-81
2023/05/03 04:24:50;;;;;;;;;23.33;22.33;;;;;12.98;nan;101687.06;4869199;29;45365;-82
2023/05/03 04:27:17;;;;;;;;;18.00;18.00;;;;;12.94;nan;101682.53;4870003;29;47377;-82
2023/05/03 04:29:42;;;;;;;;;21.67;20.33;;;;;12.95;nan;101683.44;4871410;29;44938;-82
2023/05/03 04:35:29;;;;;;;;;20.67;20.00;;;;;13.03;nan;101681.81;4871398;29;45750;-84
2023/05/03 04:37:54;;;;;;;;;18.67;17.33;;;;;13.01;nan;101684.47;4874765;29;45452;-83
2023/05/03 04:40:20;;;;;;;;;23.33;21.33;;;;;12.93;nan;101686.09;4873226;29;45424;-83
2023/05/03 04:42:45;;;;;;;;;27.00;22.00;;;;;13.04;nan;101688.94;4874264;29;45315;-82
2023/05/03 04:45:13;;;;;;;;;23.33;20.67;;;;;13.09;nan;101681.00;4874199;29;45470;-83
2023/05/03 04:47:39;;;;;;;;;17.33;17.33;;;;;13.12;nan;101686.44;4872081;29;47023;-82
2023/05/03 04:50:06;;;;;;;;;24.33;24.33;;;;;13.17;nan;101685.66;4873506;29;45464;-83
2023/05/03 04:52:32;;;;;;;;;19.00;17.00;;;;;13.14;nan;101685.56;4873828;29;45479;-83
2023/05/03 04:54:57;;;;;;;;;21.00;18.00;;;;;13.12;nan;101686.44;4873646;29;45475;-82
2023/05/03 04:57:31;;;;;;;;;21.67;20.33;;;;;13.17;nan;101687.44;4872671;29;47446;-84
2023/05/03 04:59:56;;;;;;;;;21.67;19.00;;;;;13.23;nan;101684.88;4874315;29;45459;-83
2023/05/03 05:02:22;;;;;;;;;20.00;19.33;;;;;13.21;nan;101690.19;4874835;29;45599;-84
2023/05/03 05:04:48;;;;;;;;;24.67;20.67;;;;;13.16;nan;101688.28;4871148;29;45392;-84
2023/05/03 05:07:13;;;;;;;;;20.00;17.67;;;;;13.24;nan;101686.66;4872932;29;46054;-82
2023/05/03 05:09:39;;;;;;;;;22.33;21.33;;;;;13.28;nan;101690.28;4885258;29;46133;-83
2023/05/03 05:12:04;;;;;;;;;19.33;17.00;;;;;13.26;nan;101690.25;4893215;29;45360;-83
2023/05/03 05:14:30;;;;;;;;;22.00;21.67;;;;;13.27;nan;101693.81;4891074;29;45424;-83
2023/05/03 05:16:57;;;;;;;;;23.00;21.00;;;;;13.27;nan;101686.72;4890250;29;45384;-84
2023/05/03 05:19:22;;;;;;;;;23.33;22.00;;;;;13.27;nan;101692.06;4889406;29;45752;-84
2023/05/03 05:21:47;;;;;;;;;24.33;20.00;;;;;13.24;nan;101675.97;4890140;29;45370;-83
2023/05/03 05:24:13;;;;;;;;;25.33;19.67;;;;;13.26;nan;101686.69;4874247;29;45578;-83
2023/05/03 05:26:38;;;;;;;;;16.67;15.33;;;;;13.26;nan;101690.25;4892213;29;46080;-83
2023/05/03 05:29:05;;;;;;;;;23.67;19.00;;;;;13.40;nan;101683.41;4892170;29;46064;-83
2023/05/03 05:31:31;;;;;;;;;28.33;21.33;;;;;13.32;nan;101685.06;4879859;29;45389;-84
2023/05/03 05:33:56;;;;;;;;;24.67;21.00;;;;;13.45;nan;101694.16;4874395;29;45448;-83
2023/05/03 05:36:23;;;;;;;;;20.33;20.33;;;;;13.66;nan;101687.41;4872514;29;45740;-84
2023/05/03 05:38:48;;;;;;;;;20.67;18.00;;;;;13.68;nan;101689.25;4857175;29;45394;-83
2023/05/03 05:41:14;;;;;;;;;27.33;22.33;;;;;13.83;nan;101687.69;4874726;29;45745;-83
2023/05/03 05:43:39;;;;;;;;;19.00;16.33;;;;;13.93;nan;101678.94;4872816;29;45507;-84
2023/05/03 05:46:05;;;;;;;;;22.33;20.00;;;;;14.10;nan;101690.78;4872459;29;46069;-83
2023/05/03 05:48:30;;;;;;;;;24.33;22.67;;;;;14.15;nan;101701.56;4855762;29;45468;-83
2023/05/03 05:50:58;;;;;;;;;24.33;20.33;;;;;14.24;nan;101695.41;4878353;29;45025;-83
2023/05/03 05:53:24;;;;;;;;;29.00;24.00;;;;;14.05;nan;101694.28;4888929;29;45732;-83
2023/05/03 05:55:49;;;;;;;;;24.00;22.00;;;;;14.07;nan;101693.41;4878225;29;46927;-83
2023/05/03 05:58:15;;;;;;;;;21.00;21.00;;;;;14.16;nan;101698.91;4894427;29;45445;-83
2023/05/03 06:00:41;;;;;;;;;22.00;22.00;;;;;14.21;nan;101701.63;4880070;29;44833;-83
2023/05/03 06:03:06;;;;;;;;;19.00;17.67;;;;;14.29;nan;101704.44;4881637;29;45386;-83
2023/05/03 06:05:32;;;;;;;;;20.00;18.33;;;;;14.50;nan;101710.09;4891052;29;45473;-83
2023/05/03 06:07:57;;;;;;;;;25.67;21.67;;;;;14.53;nan;101698.53;4890679;29;44928;-83
2023/05/03 06:10:23;;;;;;;;;11.67;11.00;;;;;14.64;nan;101709.38;4891360;29;44806;-83
2023/05/03 06:12:49;;;;;;;;;27.33;24.00;;;;;14.85;nan;101704.31;4892281;29;45450;-83
2023/05/03 06:15:15;;;;;;;;;28.33;24.33;;;;;14.79;nan;101704.25;4892860;29;45349;-83
2023/05/03 06:17:40;;;;;;;;;24.33;21.67;;;;;14.86;nan;101699.84;4890676;29;44794;-88
2023/05/03 06:20:26;;;;;;;;;21.67;21.33;;;;;15.18;nan;101700.19;4890619;29;45336;-88
2023/05/03 06:22:52;;;;;;;;;25.00;21.33;;;;;15.08;nan;101692.94;4891638;29;45346;-88
2023/05/03 06:25:20;;;;;;;;;29.33;25.67;;;;;15.29;nan;101701.22;4889733;29;48288;-88
2023/05/03 06:27:45;;;;;;;;;18.00;16.67;;;;;15.11;nan;101693.00;4889403;29;45331;-88
2023/05/03 06:30:22;;;;;;;;;26.00;23.00;;;;;15.18;nan;101690.38;4891405;29;45401;-81
2023/05/03 06:32:48;;;;;;;;;22.67;20.33;;;;;14.94;nan;101688.31;4890852;29;45542;-82
2023/05/03 06:35:14;;;;;;;;;23.33;19.67;;;;;14.92;nan;101687.41;4887538;29;47907;-82
2023/05/03 06:37:42;;;;;;;;;21.00;21.00;;;;;15.09;nan;101684.94;4887933;29;46258;-83
2023/05/03 06:40:08;;;;;;;;;24.00;22.67;;;;;15.13;nan;101691.22;4887530;29;45371;-84
2023/05/03 06:42:33;;;;;;;;;19.33;19.00;;;;;15.11;nan;101682.28;4872099;29;45626;-83
2023/05/03 06:44:59;;;;;;;;;23.67;22.67;;;;;15.10;nan;101685.81;4873350;29;47642;-83
2023/05/03 06:47:24;;;;;;;;;25.00;20.67;;;;;15.14;nan;101691.22;4892906;29;45623;-82
2023/05/03 06:49:50;;;;;;;;;24.67;20.33;;;;;15.17;nan;101693.94;4889453;29;45336;-82
2023/05/03 06:52:18;;;;;;;;;20.67;19.33;;;;;15.27;nan;101694.94;4874664;29;45523;-83
2023/05/03 06:54:43;;;;;;;;;21.00;19.00;;;;;15.46;nan;101690.66;4889925;29;48230;-83
2023/05/03 06:57:12;;;;;;;;;23.33;22.00;;;;;15.62;nan;101691.69;4875558;29;45361;-84
2023/05/03 06:59:37;;;;;;;;;24.67;24.67;;;;;15.59;nan;101687.22;4893113;29;45362;-82
2023/05/03 07:02:03;;;;;;;;;27.33;23.00;;;;;15.57;nan;101686.28;4893163;29;45407;-83
2023/05/03 07:04:31;;;;;;;;;22.33;22.00;;;;;15.75;nan;101682.91;4893374;29;45391;-83
2023/05/03 07:06:57;;;;;;;;;27.00;26.33;;;;;15.80;nan;101683.81;4896194;29;45537;-82
2023/05/03 07:09:23;;;;;;;;;24.67;22.33;;;;;15.90;nan;101681.22;4895807;29;45486;-82
2023/05/03 07:11:50;;;;;;;;;23.33;20.00;;;;;15.96;nan;101682.16;4893471;29;45437;-80
2023/05/03 07:14:16;;;;;;;;;18.00;18.00;;;;;15.93;nan;101682.13;4894719;29;48014;-81
2023/05/03 07:16:41;;;;;;;;;22.67;22.67;;;;;16.03;nan;101683.09;4876955;29;45667;-81
2023/05/03 07:19:07;;;;;;;;;31.00;26.00;;;;;16.12;nan;101669.75;4880597;29;45782;-82
2023/05/03 07:21:33;;;;;;;;;25.67;25.00;;;;;16.15;nan;101676.91;4893289;29;45513;-81
2023/05/03 07:24:01;;;;;;;;;24.67;22.33;;;;;16.24;nan;101665.31;4895308;29;45579;-82
2023/05/03 07:26:26;;;;;;;;;20.67;19.00;;;;;16.14;nan;101659.03;4892716;29;45856;-81
2023/05/03 07:28:54;;;;;;;;;28.67;23.33;;;;;16.35;nan;101664.47;4878356;29;45430;-82
2023/05/03 07:31:22;;;;;;;;;27.00;25.67;;;;;16.46;nan;101656.50;4896689;29;45463;-82
2023/05/03 07:33:51;;;;;;;;;28.67;25.33;;;;;16.52;nan;101653.84;4883528;29;45581;-81
2023/05/03 07:36:22;;;;;;;;;26.67;21.67;;;;;16.53;nan;101652.94;4875619;29;45453;-82
2023/05/03 07:38:47;;;;;;;;;22.33;20.33;;;;;16.53;nan;101652.94;4862324;29;45378;-82
2023/05/03 07:41:13;;;;;;;;;23.33;21.00;;;;;16.66;nan;101653.88;4876427;29;45720;-82
2023/05/03 07:43:39;;;;;;;;;23.33;21.67;;;;;16.68;nan;101645.81;4870855;29;45431;-82
2023/05/03 07:46:05;;;;;;;;;22.00;22.00;;;;;16.72;nan;101637.75;4875807;29;45465;-83
2023/05/03 07:48:33;;;;;;;;;26.33;25.67;;;;;16.81;nan;101634.28;4879675;29;45310;-81
2023/05/03 07:51:03;;;;;;;;;24.67;23.67;;;;;16.87;nan;101626.22;4859317;29;45391;-81
2023/05/03 07:53:28;;;;;;;;;21.33;21.00;;;;;17.05;nan;101619.06;4856699;29;45636;-83
2023/05/03 07:55:54;;;;;;;;;26.33;22.00;;;;;17.18;nan;101626.25;4875570;29;45566;-84
2023/05/03 07:58:20;;;;;;;;;24.00;23.00;;;;;17.30;nan;101620.88;4879389;29;45650;-82
2023/05/03 08:00:46;;;;;;;;;25.33;23.33;;;;;17.24;nan;101612.81;4863064;29;45495;-83
2023/05/03 08:03:11;;;;;;;;;26.00;23.67;;;;;17.25;nan;101616.41;4877397;29;44864;-83
2023/05/03 08:05:37;;;;;;;;;25.33;23.00;;;;;17.27;nan;101607.47;4877733;29;45332;-82
2023/05/03 08:08:04;;;;;;;;;22.67;21.00;;;;;17.29;nan;101602.97;4877602;29;45536;-81
2023/05/03 08:10:35;;;;;;;;;25.33;24.00;;;;;17.31;nan;101602.97;4876803;29;45500;-80
2023/05/03 08:13:00;;;;;;;;;23.00;21.67;;;;;17.35;nan;101612.81;4857577;29;45444;-83
2023/05/03 08:15:26;;;;;;;;;27.00;22.67;;;;;17.42;nan;101602.97;4864756;29;45387;-82
2023/05/03 08:17:52;;;;;;;;;22.00;21.33;;;;;17.63;nan;101602.94;4880245;29;45692;-81
2023/05/03 08:20:18;;;;;;;;;18.00;17.67;;;;;17.69;nan;101602.94;4880407;29;45400;-82
2023/05/03 08:26:26;;;;;;;;;;;;;;;;;;;;;
2023/05/03 08:28:52;;;;;;;;;23.33;19.33;;;;;17.74;nan;101600.25;4874984;29;68302;-82
2023/05/03 08:31:17;;;;;;;;;24.33;21.00;;;;;17.84;nan;101595.78;4877576;29;45264;-81
2023/05/03 08:33:51;;;;;;;;;19.00;18.33;;;;;17.93;nan;101593.94;4880390;29;46154;-83
2023/05/03 08:36:38;;;;;;;;;21.33;20.67;;;;;17.97;nan;101576.00;4879283;29;45378;-85
2023/05/03 08:39:08;;;;;;;;;21.00;18.33;;;;;18.07;nan;101595.72;4862874;29;45340;-83
2023/05/03 08:41:38;;;;;;;;;18.33;18.00;;;;;18.33;nan;101585.72;4880271;29;45529;-83
2023/05/03 08:44:11;;;;;;;;;20.33;19.00;;;;;18.33;nan;101576.75;4883940;29;48199;-82
2023/05/03 08:46:53;;;;;;;;;;;;;;;;;;;;;
2023/05/03 08:50:05;;;;;;;;;24.00;21.33;;;;;18.41;nan;101577.63;4883516;29;44775;-82
2023/05/03 08:52:36;;;;;;;;;19.00;19.00;;;;;18.19;nan;101556.16;4856240;29;45571;-81
2023/05/03 08:55:11;;;;;;;;;18.00;18.00;;;;;18.39;nan;101569.53;4851006;29;45005;-82
2023/05/03 08:57:37;;;;;;;;;14.67;14.67;;;;;18.27;nan;101566.03;4842424;29;45496;-81
2023/05/03 09:00:05;;;;;;;;;17.33;16.67;;;;;18.31;nan;101559.72;4838832;29;45041;-82
2023/05/03 09:03:20;;;;;;;;;17.00;17.00;;;;;18.82;nan;101578.31;4837591;29;45279;-84
2023/05/03 09:06:24;;;;;;;;;16.33;14.67;;;;;18.76;nan;101580.13;4832366;29;47895;-83
2023/05/03 09:08:51;;;;;;;;;16.33;16.33;;;;;18.53;nan;101558.69;4837415;29;45454;-82
2023/05/03 09:11:44;;;;;;;;;23.00;18.67;;;;;18.69;nan;101547.84;4838807;29;44814;-81
2023/05/03 09:14:49;;;;;;;;;16.67;16.00;;;;;18.64;nan;101536.19;4836927;29;45489;-83
2023/05/03 09:17:35;;;;;;;;;18.33;18.33;;;;;18.85;nan;101573.81;4840362;29;47091;-83
2023/05/03 09:20:01;;;;;;;;;20.00;19.00;;;;;18.66;nan;101575.66;4874014;29;45186;-82
2023/05/03 09:22:30;;;;;;;;;17.67;17.00;;;;;18.61;nan;101569.44;4876914;29;45493;-83
2023/05/03 09:25:19;;;;;;;;;19.67;19.00;;;;;18.82;nan;101563.03;4878686;29;45415;-82
2023/05/03 09:28:02;;;;;;;;;15.67;15.33;;;;;18.82;nan;101557.63;4876355;29;46655;-83
2023/05/03 09:30:28;;;;;;;;;22.00;21.67;;;;;18.73;nan;101555.88;4878342;29;45369;-82
2023/05/03 09:32:57;;;;;;;;;19.33;15.00;;;;;18.88;nan;101568.38;4862189;29;44896;-82
2023/05/03 09:35:22;;;;;;;;;17.00;17.00;;;;;18.66;nan;101555.91;4879018;29;45475;-82
2023/05/03 09:37:48;;;;;;;;;21.67;21.67;;;;;18.66;nan;101562.19;4858495;29;47018;-82
2023/05/03 09:40:17;;;;;;;;;22.00;21.67;;;;;18.83;nan;101575.63;4857439;29;45479;-82
2023/05/03 09:43:05;;;;;;;;;20.67;20.33;;;;;19.05;nan;101565.56;4869582;29;45460;-83
2023/05/03 09:45:34;;;;;;;;;20.33;18.00;;;;;18.89;nan;101537.84;4872984;29;45277;-82
2023/05/03 09:48:02;;;;;;;;;21.00;20.67;;;;;19.10;nan;101549.34;4865480;29;45487;-83
2023/05/03 09:50:50;;;;;;;;;16.00;15.00;;;;;19.20;nan;101542.97;4857897;29;45561;-82
2023/05/03 09:53:22;;;;;;;;;18.67;16.33;;;;;19.11;nan;101540.38;4859917;29;44821;-81
2023/05/03 09:56:11;;;;;;;;;22.00;16.00;;;;;19.17;nan;101557.38;4879364;29;45551;-83
2023/05/03 09:58:42;;;;;;;;;18.00;16.67;;;;;19.02;nan;101533.22;4869529;29;45387;-84
2023/05/03 10:01:24;;;;;;;;;17.33;17.00;;;;;18.91;nan;101518.97;4873975;29;46779;-84
2023/05/03 10:04:18;;;;;;;;;15.33;13.67;;;;;19.12;nan;101523.28;4874598;29;44912;-82
2023/05/03 10:10:06;;;;;;;;;18.33;18.33;;;;;19.16;nan;101519.63;4872824;29;45366;-82
2023/05/03 10:12:58;;;;;;;;;17.67;15.00;;;;;19.28;nan;101511.44;4884733;29;45553;-82
2023/05/03 10:15:29;;;;;;;;;16.33;16.33;;;;;19.29;nan;101505.16;4891924;29;45393;-83
2023/05/03 10:18:14;;;;;;;;;18.33;16.33;;;;;19.23;nan;101478.25;4873379;29;45747;-83
2023/05/03 10:24:35;;;;;;;;;19.00;18.67;;;;;19.59;nan;101524.59;4876630;29;44785;-85
2023/05/03 10:27:11;;;;;;;;;17.00;14.33;;;;;19.33;nan;101474.53;4865281;29;45483;-84
2023/05/03 10:29:44;;;;;;;;;16.33;13.67;;;;;19.46;nan;101523.84;4858434;29;45649;-84
2023/05/03 10:32:32;;;;;;;;;21.00;17.67;;;;;19.61;nan;101490.41;4872401;29;47768;-84
2023/05/03 10:35:15;;;;;;;;;15.00;15.00;;;;;19.81;nan;101519.00;4875596;29;45427;-82
2023/05/03 10:37:42;;;;;;;;;17.33;16.67;;;;;19.67;nan;101500.22;4857767;29;45695;-82
2023/05/03 10:40:14;;;;;;;;;17.67;17.00;;;;;19.81;nan;101492.00;4873673;29;45543;-83
2023/05/03 10:42:59;;;;;;;;;20.33;17.33;;;;;19.85;nan;101505.44;4855547;29;48013;-83
2023/05/03 10:45:55;;;;;;;;;17.00;15.33;;;;;19.82;nan;101483.91;4879076;29;45438;-83
2023/05/03 10:48:21;;;;;;;;;17.67;16.00;;;;;19.73;nan;101484.91;4856136;29;45479;-84
2023/05/03 10:51:27;;;;;;;;;16.67;14.00;;;;;19.77;nan;101458.75;4875634;29;44965;-82
2023/05/03 10:53:56;;;;;;;;;20.00;16.00;;;;;19.85;nan;101474.88;4872279;29;47245;-82
2023/05/03 10:56:56;;;;;;;;;17.33;17.00;;;;;19.90;nan;101473.00;4875595;29;45388;-83
2023/05/03 10:59:23;;;;;;;;;14.67;13.67;;;;;19.76;nan;101457.00;4846949;29;45134;-84
2023/05/03 11:01:51;;;;;;;;;17.33;13.33;;;;;19.86;nan;101460.47;4874542;29;45534;-84
2023/05/03 11:04:54;;;;;;;;;16.00;16.00;;;;;19.86;nan;101446.97;4870228;29;45404;-83
2023/05/03 11:07:21;;;;;;;;;14.00;14.00;;;;;19.74;nan;101430.00;4880686;29;45388;-82
2023/05/03 11:10:52;;;;;;;;;18.67;17.67;;;;;20.02;nan;101442.22;4876723;29;45317;-83
2023/05/03 11:13:21;;;;;;;;;15.67;15.33;;;;;20.06;nan;101465.63;4770916;29;45504;-82
2023/05/03 11:15:56;;;;;;;;;14.00;14.00;;;;;20.05;nan;101453.91;4767224;29;45481;-77
2023/05/03 11:18:33;;;;;;;;;54.67;45.00;;;;;20.03;nan;101442.22;4764056;29;45484;-75
2023/05/03 11:21:02;;;;;;;;;14.00;13.33;;;;;20.01;nan;101441.34;4756042;29;45448;-76
2023/05/03 11:23:28;;;;;;;;;25.67;24.33;;;;;20.02;nan;101443.16;4755789;29;45445;-74
2023/05/03 11:25:56;;;;;;;;;24.67;24.00;;;;;20.12;nan;101425.91;4754210;29;45556;-76
2023/05/03 11:28:25;;;;;;;;;21.67;18.67;;;;;20.37;nan;101423.72;4754967;29;45460;-77
2023/05/03 11:30:50;;;;;;;;;10.00;10.00;;;;;20.39;nan;101416.47;4755421;29;45630;-72
2023/05/03 11:33:16;;;;;;;;;18.33;15.33;;;;;20.49;nan;101419.94;4755616;29;45417;-74
2023/05/03 11:35:42;;;;;;;;;18.33;17.67;;;;;20.51;nan;101420.78;4754625;29;45396;-75
2023/05/03 11:38:09;;;;;;;;;14.00;14.00;;;;;20.63;nan;101418.84;4754670;29;45666;-76
2023/05/03 11:40:35;;;;;;;;;10.00;9.00;;;;;20.64;nan;101417.91;4755053;29;45657;-76
2023/05/03 11:43:01;;;;;;;;;23.33;22.67;;;;;20.61;nan;101401.78;4748870;29;45479;-73
2023/05/03 11:45:44;;;;;;;;;13.00;13.00;;;;;20.85;nan;101400.44;4754662;29;46202;-73
2023/05/03 11:48:13;;;;;;;;;18.33;17.00;;;;;20.95;nan;101386.72;4850121;29;45424;-74
2023/05/03 11:50:54;;;;;;;;;16.00;15.33;;;;;21.11;nan;101390.03;4869622;29;46172;-78
2023/05/03 11:53:25;;;;;;;;;13.33;13.33;;;;;21.02;nan;101390.19;4849779;29;45995;-78
2023/05/03 11:55:53;;;;;;;;;17.33;13.67;;;;;21.06;nan;101381.09;4864080;29;45491;-77